Airfield :
LOGIN :

Register | Disclaimer

   EN    FR    IT 

 










Legend :    VFR   Marginal VFR   IFR   Intensive IFR   Very Intensive IFR
Visi :
Ceiling :
>= 8 km
>= 3000ft
5 to 8 km
1000 to 3000 ft
1500m to 5 km
500 to 1000 ft
800 to 1500m
200 to 500 ft
< 800m
< 200 ft
Symbols :   Thunderstorms  Fog  Heavy snow  Heavy precipitations  Wind > 20 kt
SIGMETs :     Misc.  Thunderstorms  Icing  Turbulence  Mountain Waves  Volcanic Ashes






- Airport Elevation : 80 ft
- IATA code : LPL


EGGP - Liverpool John Lennon

CURRENT METAR :
  • 220150Z 17016KT 9999 -RA BKN025 08/06 Q0988

EXPIRED METARs :
  • 220120Z 18019KT 9999 -RA BKN026 09/05 Q0989
  • 220050Z 17011KT 9999 BKN025 09/05 Q0989
  • 220020Z 16011KT 9999 BKN039 09/06 Q0990
  • 212350Z 21017KT 9999 FEW045 09/05 Q0991
  • 212320Z 20013KT 9999 FEW032 09/06 Q0992
  • 212250Z 18012KT 9999 FEW032 10/07 Q0992
  • 212220Z 19010KT 9999 FEW022 SCT045 10/08 Q0993
  • 212150Z 19008KT 9999 FEW022 SCT045 10/08 Q0993
  • 212120Z 19006KT 9999 BKN021 10/08 Q0993

TAF TAF EGGP
Valid from the 22 at 00:00 until the 23 at 00:00 UTC


212301Z 2200/2224 20012KT 9999 FEW025
PROB30
TEMPO 2200/2206 21015G25KT
TEMPO 2203/2208 7000 RA SHRA BKN012
PROB40
TEMPO 2203/2206 4000 +RA +SHRA BKN009 BKN020CB
PROB40
TEMPO 2208/2214 6000 RA SHRA BKN012
BECMG 2209/2212 29012KT
PROB30
TEMPO 2214/2221 7000 SHRA BKN014
PROB30
TEMPO 2214/2218 30015G25KT
BECMG 2218/2221 19009KT
ATIS : +44 151 907 2000 (option 5 or ext 5150)
Met : +44 871 750 5150



MET'MAP, your aeronautical weather chart ! - Copyright ORBIFLY December 2007 - Disclaimer

ORBIFLY MET'MAP TEAM :

Programming & Development : Alexandra Zaïnal
Original concept : Baudouin d'Aumeries
Technical & hardware support : Manuel Goepfert
Assistance : Marc-Olivier Méhu




SOURCES & CREDITS :

   NOAA